createdAt,value
2023-05-12T00:00:07.852Z,39.39
2023-05-12T00:00:37.926Z,39.33
2023-05-12T00:01:08.000Z,39.33
2023-05-12T00:01:38.093Z,39.38
2023-05-12T00:02:08.208Z,39.38
2023-05-12T00:02:38.360Z,39.33
2023-05-12T00:03:08.457Z,39.37
2023-05-12T00:03:38.525Z,39.33
2023-05-12T00:04:08.700Z,39.35
2023-05-12T00:04:38.497Z,39.41
2023-05-12T00:05:08.534Z,39.43
2023-05-12T00:05:38.643Z,39.41
2023-05-12T00:06:09.090Z,39.39
2023-05-12T00:06:38.824Z,39.41
2023-05-12T00:07:38.952Z,39.43
2023-05-12T00:08:09.055Z,39.41
2023-05-12T00:08:39.130Z,39.36
2023-05-12T00:09:09.209Z,39.32
2023-05-12T00:09:39.350Z,39.36
2023-05-12T00:10:09.406Z,39.37
2023-05-12T00:10:39.545Z,39.33
2023-05-12T00:11:09.507Z,39.32
2023-05-12T00:11:39.593Z,39.38
2023-05-12T00:12:09.686Z,39.33
2023-05-12T00:12:39.783Z,39.36
2023-05-12T00:13:09.872Z,39.37
2023-05-12T00:13:40.012Z,39.33
2023-05-12T00:14:10.003Z,39.34
2023-05-12T00:14:40.241Z,39.33
2023-05-12T00:15:10.193Z,39.33
2023-05-12T00:15:40.274Z,39.33
2023-05-12T00:16:10.382Z,39.34
2023-05-12T00:16:40.400Z,39.32
2023-05-12T00:17:10.468Z,39.33
2023-05-12T00:17:40.570Z,39.36
2023-05-12T00:18:10.653Z,39.34
2023-05-12T00:18:40.762Z,39.29
2023-05-12T00:19:10.871Z,39.30
2023-05-12T00:19:40.926Z,39.31
2023-05-12T00:20:11.015Z,39.29
2023-05-12T00:20:41.102Z,39.32
2023-05-12T00:21:11.205Z,39.30
2023-05-12T00:21:41.277Z,39.30
2023-05-12T00:22:11.418Z,39.30
2023-05-12T00:22:41.396Z,39.38
2023-05-12T00:23:11.475Z,39.32
2023-05-12T00:23:41.550Z,39.37
2023-05-12T00:24:11.679Z,39.30
2023-05-12T00:24:41.749Z,39.31
2023-05-12T00:25:11.868Z,39.34
2023-05-12T00:25:41.930Z,39.31
2023-05-12T00:26:12.026Z,39.31
2023-05-12T00:26:42.130Z,39.34
2023-05-12T00:27:12.180Z,39.29
2023-05-12T00:27:42.270Z,39.32
2023-05-12T00:28:12.365Z,39.33
2023-05-12T00:28:42.447Z,39.34
2023-05-12T00:29:12.546Z,39.33
2023-05-12T00:29:42.630Z,39.32
2023-05-12T00:30:12.714Z,39.33
2023-05-12T00:30:42.802Z,39.32
2023-05-12T00:31:12.934Z,39.38
2023-05-12T00:31:42.916Z,39.31
2023-05-12T00:32:13.008Z,39.30
2023-05-12T00:32:43.154Z,39.33
2023-05-12T00:33:13.288Z,39.30
2023-05-12T00:33:43.292Z,39.30
2023-05-12T00:34:13.384Z,39.27
2023-05-12T00:34:43.532Z,39.31
2023-05-12T00:35:13.525Z,39.30
2023-05-12T00:35:43.585Z,39.27
2023-05-12T00:36:13.671Z,39.34
2023-05-12T00:36:43.710Z,39.34
2023-05-12T00:37:13.746Z,39.35
2023-05-12T00:37:43.785Z,39.32
2023-05-12T00:38:13.840Z,39.31
2023-05-12T00:38:43.880Z,39.33
2023-05-12T00:39:13.936Z,39.32
2023-05-12T00:39:43.967Z,39.32
2023-05-12T00:40:14.026Z,39.31
2023-05-12T00:40:44.058Z,39.31
2023-05-12T00:41:14.097Z,39.33
2023-05-12T00:41:44.129Z,39.34
2023-05-12T00:42:14.169Z,39.30
2023-05-12T00:42:44.289Z,39.32
2023-05-12T00:43:14.333Z,39.34
2023-05-12T00:43:44.377Z,39.34
2023-05-12T00:44:14.412Z,39.32
2023-05-12T00:44:44.465Z,39.31
2023-05-12T00:45:14.514Z,39.30
2023-05-12T00:45:44.582Z,39.31
2023-05-12T00:46:14.695Z,39.36
2023-05-12T00:46:44.749Z,39.30
2023-05-12T00:47:14.842Z,39.30
2023-05-12T00:47:45.022Z,39.30
2023-05-12T00:48:14.977Z,39.32
2023-05-12T00:48:45.060Z,39.35
2023-05-12T00:49:15.178Z,39.32
2023-05-12T00:49:45.184Z,39.32
2023-05-12T00:50:45.248Z,39.31
2023-05-12T00:51:15.310Z,39.32
2023-05-12T00:51:45.413Z,39.30
2023-05-12T00:52:15.505Z,39.32
2023-05-12T00:52:45.581Z,39.27
2023-05-12T00:53:15.674Z,39.34
2023-05-12T00:53:49.947Z,39.28
2023-05-12T00:54:15.845Z,39.28
2023-05-12T00:54:45.918Z,39.28
2023-05-12T00:55:16.004Z,39.25
2023-05-12T00:55:46.113Z,39.28
2023-05-12T00:56:16.165Z,39.31
2023-05-12T00:56:46.270Z,39.28
2023-05-12T00:57:16.386Z,39.31
2023-05-12T00:57:46.358Z,39.31
2023-05-12T00:58:16.451Z,39.28
2023-05-12T00:58:46.561Z,39.30
2023-05-12T00:59:16.628Z,39.34
2023-05-12T00:59:46.716Z,39.29
2023-05-12T01:00:16.878Z,39.28
2023-05-12T01:00:46.861Z,39.25
2023-05-12T01:01:16.860Z,39.31
2023-05-12T01:01:46.840Z,39.27
2023-05-12T01:02:16.946Z,39.28
2023-05-12T01:02:47.075Z,39.28
2023-05-12T01:03:17.180Z,39.27
2023-05-12T01:03:47.202Z,39.27
2023-05-12T01:04:17.195Z,39.24
2023-05-12T01:04:47.271Z,39.27
2023-05-12T01:05:17.363Z,39.29
2023-05-12T01:05:47.452Z,39.27
2023-05-12T01:06:17.556Z,39.31
2023-05-12T01:06:47.628Z,39.24
2023-05-12T01:07:17.715Z,39.26
2023-05-12T01:07:47.806Z,39.27
2023-05-12T01:08:17.881Z,39.32
2023-05-12T01:08:47.956Z,39.25
2023-05-12T01:09:18.044Z,39.25
2023-05-12T01:09:48.130Z,39.28
2023-05-12T01:10:18.768Z,39.31
2023-05-12T01:10:48.259Z,39.28
2023-05-12T01:11:18.356Z,39.32
2023-05-12T01:11:48.429Z,39.32
2023-05-12T01:12:18.502Z,39.31
2023-05-12T01:12:48.592Z,39.27
2023-05-12T01:13:18.676Z,39.25
2023-05-12T01:13:48.774Z,39.28
2023-05-12T01:14:18.845Z,39.26
2023-05-12T01:14:48.917Z,39.31
2023-05-12T01:15:19.001Z,39.29
2023-05-12T01:15:49.106Z,39.26
2023-05-12T01:16:19.176Z,39.29
2023-05-12T01:16:49.311Z,39.31
2023-05-12T01:17:19.299Z,39.26
2023-05-12T01:17:49.380Z,39.27
2023-05-12T01:18:19.346Z,39.19
2023-05-12T01:18:49.494Z,39.22
2023-05-12T01:19:19.513Z,39.25
2023-05-12T01:19:49.503Z,39.19
2023-05-12T01:20:19.766Z,39.23
2023-05-12T01:20:49.484Z,39.22
2023-05-12T01:21:19.584Z,39.22
2023-05-12T01:21:49.570Z,39.15
2023-05-12T01:22:19.670Z,39.15
2023-05-12T01:22:49.774Z,39.15
2023-05-12T01:23:19.847Z,39.15
2023-05-12T01:23:49.918Z,39.12
2023-05-12T01:24:20.007Z,39.12
2023-05-12T01:24:50.135Z,39.12
2023-05-12T01:25:20.229Z,39.11
2023-05-12T01:25:50.302Z,39.01
2023-05-12T01:26:20.379Z,39.07
2023-05-12T01:26:50.504Z,39.04
2023-05-12T01:27:20.552Z,39.06
2023-05-12T01:27:50.642Z,39.00
2023-05-12T01:28:20.726Z,39.02
2023-05-12T01:28:50.824Z,39.02
2023-05-12T01:29:20.899Z,38.98
2023-05-12T01:29:51.001Z,38.98
2023-05-12T01:30:21.268Z,39.00
2023-05-12T01:30:51.183Z,39.00
2023-05-12T01:31:21.468Z,39.07
2023-05-12T01:31:51.266Z,39.00
2023-05-12T01:32:21.400Z,38.99
2023-05-12T01:32:51.474Z,39.02
2023-05-12T01:33:21.438Z,38.94
2023-05-12T01:33:51.525Z,39.02
2023-05-12T01:34:21.613Z,38.99
2023-05-12T01:34:51.697Z,38.99
2023-05-12T01:35:21.783Z,38.99
2023-05-12T01:35:51.866Z,38.97
2023-05-12T01:36:21.923Z,38.92
2023-05-12T01:36:51.974Z,38.94
2023-05-12T01:37:22.016Z,38.92
2023-05-12T01:37:52.062Z,38.94
2023-05-12T01:38:22.088Z,38.89
2023-05-12T01:38:52.141Z,38.92
2023-05-12T01:39:22.229Z,38.92
2023-05-12T01:39:52.248Z,38.91
2023-05-12T01:40:22.402Z,38.89
2023-05-12T01:40:52.378Z,38.95
2023-05-12T01:41:22.429Z,38.92
2023-05-12T01:41:52.564Z,38.97
2023-05-12T01:42:22.577Z,38.92
2023-05-12T01:42:52.616Z,38.96
2023-05-12T01:43:22.666Z,38.95
2023-05-12T01:43:52.724Z,38.94
2023-05-12T01:44:22.779Z,38.92
2023-05-12T01:44:52.799Z,38.91
2023-05-12T01:45:22.843Z,38.91
2023-05-12T01:45:52.886Z,38.90
2023-05-12T01:46:23.035Z,38.88
2023-05-12T01:46:53.027Z,38.90
2023-05-12T01:47:23.122Z,38.85
2023-05-12T01:47:53.288Z,38.88
2023-05-12T01:48:23.285Z,38.86
2023-05-12T01:48:53.369Z,38.84
2023-05-12T01:49:23.460Z,38.88
2023-05-12T01:49:53.548Z,38.85
2023-05-12T01:50:23.634Z,38.94
2023-05-12T01:50:53.718Z,38.88
2023-05-12T01:51:23.792Z,38.91
2023-05-12T01:51:53.877Z,38.89
2023-05-12T01:52:23.968Z,38.84
2023-05-12T01:52:54.053Z,38.85
2023-05-12T01:53:24.135Z,38.91
2023-05-12T01:53:54.215Z,38.92
2023-05-12T01:54:24.306Z,38.96
2023-05-12T01:54:54.379Z,38.91
2023-05-12T01:55:24.469Z,38.91
2023-05-12T01:55:54.557Z,38.92
2023-05-12T01:56:24.647Z,38.95
2023-05-12T01:56:54.745Z,38.92
2023-05-12T01:57:24.828Z,38.92
2023-05-12T01:57:54.913Z,38.94
2023-05-12T01:58:25.024Z,38.94
2023-05-12T01:58:55.116Z,39.02
2023-05-12T01:59:25.248Z,38.95
2023-05-12T01:59:55.261Z,38.96
2023-05-12T02:00:25.350Z,38.90
2023-05-12T02:00:55.432Z,38.89
2023-05-12T02:01:25.544Z,38.94
2023-05-12T02:01:55.566Z,38.93
2023-05-12T02:02:25.578Z,38.93
2023-05-12T02:02:55.646Z,38.92
2023-05-12T02:03:25.686Z,38.88
2023-05-12T02:03:55.812Z,38.92
2023-05-12T02:04:25.699Z,38.88
2023-05-12T02:04:55.788Z,38.90
2023-05-12T02:05:25.873Z,38.95
2023-05-12T02:05:55.952Z,38.93
2023-05-12T02:06:26.056Z,38.90
2023-05-12T02:06:56.144Z,38.96
2023-05-12T02:07:26.234Z,38.96
2023-05-12T02:07:56.324Z,38.95
2023-05-12T02:08:26.449Z,38.95
2023-05-12T02:08:56.532Z,38.95
2023-05-12T02:09:26.613Z,38.95
2023-05-12T02:09:56.686Z,38.95
2023-05-12T02:10:26.777Z,38.89
2023-05-12T02:10:56.865Z,39.00
2023-05-12T02:11:26.974Z,38.97
2023-05-12T02:11:57.082Z,38.95
2023-05-12T02:12:27.147Z,38.90
2023-05-12T02:12:57.229Z,38.96
2023-05-12T02:13:27.312Z,38.94
2023-05-12T02:13:57.401Z,38.93
2023-05-12T02:14:27.483Z,38.95
2023-05-12T02:14:57.577Z,38.96
2023-05-12T02:15:27.681Z,38.96
2023-05-12T02:15:57.772Z,38.93
2023-05-12T02:16:27.883Z,38.99
2023-05-12T02:16:57.856Z,38.94
2023-05-12T02:17:27.949Z,38.97
2023-05-12T02:17:58.046Z,38.98
2023-05-12T02:18:28.179Z,38.95
2023-05-12T02:18:58.173Z,38.95
2023-05-12T02:19:28.256Z,39.00
2023-05-12T02:19:58.345Z,38.98
2023-05-12T02:20:28.437Z,39.01
2023-05-12T02:20:58.587Z,39.01
2023-05-12T02:21:28.560Z,39.02
2023-05-12T02:21:58.651Z,39.00
2023-05-12T02:22:28.728Z,39.01
2023-05-12T02:22:58.811Z,39.00
2023-05-12T02:23:28.893Z,38.98
2023-05-12T02:23:58.966Z,38.98
2023-05-12T02:24:29.058Z,38.95
2023-05-12T02:24:59.157Z,39.08
2023-05-12T02:25:29.250Z,38.99
2023-05-12T02:25:59.344Z,39.02
2023-05-12T02:26:29.442Z,39.02
2023-05-12T02:26:59.531Z,39.01
2023-05-12T02:27:29.596Z,38.98
2023-05-12T02:27:59.679Z,39.07
2023-05-12T02:28:29.778Z,38.99
2023-05-12T02:28:59.856Z,39.05
2023-05-12T02:29:29.931Z,39.00
2023-05-12T02:30:00.026Z,39.03
2023-05-12T02:30:30.112Z,39.05
2023-05-12T02:31:00.191Z,39.10
2023-05-12T02:31:30.285Z,39.05
2023-05-12T02:32:00.388Z,39.05
2023-05-12T02:32:30.480Z,38.98
2023-05-12T02:33:00.589Z,39.06
2023-05-12T02:33:30.597Z,39.06
2023-05-12T02:34:00.683Z,39.02
2023-05-12T02:34:30.794Z,39.04
2023-05-12T02:35:00.893Z,39.01
2023-05-12T02:35:30.968Z,39.06
2023-05-12T02:36:01.095Z,39.00
2023-05-12T02:36:31.053Z,39.05
2023-05-12T02:37:01.151Z,39.05
2023-05-12T02:37:31.207Z,38.98
2023-05-12T02:38:01.291Z,39.00
2023-05-12T02:38:31.378Z,39.00
2023-05-12T02:39:01.469Z,39.05
2023-05-12T02:39:31.572Z,38.97
2023-05-12T02:40:01.644Z,39.00
2023-05-12T02:40:31.738Z,38.94
2023-05-12T02:41:01.817Z,38.95
2023-05-12T02:41:31.908Z,38.94
2023-05-12T02:42:02.018Z,38.91
2023-05-12T02:42:32.081Z,38.90
2023-05-12T02:43:02.185Z,38.95
2023-05-12T02:43:32.264Z,38.93
2023-05-12T02:44:02.358Z,38.94
2023-05-12T02:44:32.449Z,38.93
2023-05-12T02:45:02.533Z,38.94
2023-05-12T02:45:32.611Z,38.90
2023-05-12T02:46:02.737Z,38.90
2023-05-12T02:46:32.770Z,38.88
2023-05-12T02:47:02.768Z,38.91
2023-05-12T02:47:32.822Z,38.91
2023-05-12T02:48:03.010Z,38.95
2023-05-12T02:48:32.913Z,38.95
2023-05-12T02:49:02.925Z,38.90
2023-05-12T02:49:32.936Z,38.91
2023-05-12T02:50:02.929Z,38.91
2023-05-12T02:50:32.940Z,38.93
2023-05-12T02:51:02.955Z,38.91
2023-05-12T02:51:32.941Z,38.95
2023-05-12T02:52:33.025Z,38.94
2023-05-12T02:53:03.040Z,38.93
2023-05-12T02:53:33.056Z,38.91
2023-05-12T02:54:03.059Z,38.93
2023-05-12T02:54:33.061Z,38.87
2023-05-12T02:55:03.066Z,38.84
2023-05-12T02:55:33.074Z,38.91
2023-05-12T02:56:03.087Z,38.89
2023-05-12T02:56:34.044Z,38.90
2023-05-12T02:57:03.179Z,38.83
2023-05-12T02:57:33.227Z,38.86
2023-05-12T02:58:03.223Z,38.89
2023-05-12T02:58:33.215Z,38.84
2023-05-12T02:59:03.224Z,38.83
2023-05-12T02:59:33.222Z,38.93
2023-05-12T03:00:03.227Z,38.85
2023-05-12T03:00:33.240Z,38.82
2023-05-12T03:01:10.977Z,38.83
2023-05-12T03:01:33.372Z,38.86
2023-05-12T03:02:03.418Z,38.79
2023-05-12T03:02:33.581Z,38.86
2023-05-12T03:03:03.548Z,38.86
2023-05-12T03:03:33.719Z,38.82
2023-05-12T03:04:03.675Z,38.78
2023-05-12T03:04:33.675Z,38.83
2023-05-12T03:05:03.677Z,38.75
2023-05-12T03:06:03.752Z,38.81
2023-05-12T03:06:33.757Z,38.79
2023-05-12T03:07:03.764Z,38.79
2023-05-12T03:07:33.786Z,38.76
2023-05-12T03:08:03.782Z,38.81
2023-05-12T03:08:33.782Z,38.81
2023-05-12T03:09:03.802Z,38.81
2023-05-12T03:09:33.806Z,38.79
2023-05-12T03:10:03.831Z,38.80
2023-05-12T03:10:33.829Z,38.84
2023-05-12T03:11:03.880Z,38.84
2023-05-12T03:11:33.869Z,38.83
2023-05-12T03:12:03.990Z,38.79
2023-05-12T03:12:34.005Z,38.86
2023-05-12T03:13:04.085Z,38.78
2023-05-12T03:13:34.060Z,38.80
2023-05-12T03:14:34.148Z,38.87
2023-05-12T03:15:04.157Z,38.86
2023-05-12T03:15:34.168Z,38.89
2023-05-12T03:16:04.193Z,38.91
2023-05-12T03:16:34.277Z,38.88
2023-05-12T03:17:04.335Z,38.88
2023-05-12T03:17:34.347Z,38.88
2023-05-12T03:18:04.390Z,38.89
2023-05-12T03:18:34.431Z,38.92
2023-05-12T03:19:04.510Z,38.90
2023-05-12T03:19:34.516Z,38.90
2023-05-12T03:20:04.570Z,38.93
2023-05-12T03:20:34.559Z,38.91
2023-05-12T03:21:04.562Z,38.84
2023-05-12T03:21:34.571Z,38.90
2023-05-12T03:22:04.581Z,38.84
2023-05-12T03:22:34.640Z,38.87
2023-05-12T03:23:04.645Z,38.83
2023-05-12T03:23:34.684Z,38.86
2023-05-12T03:24:04.660Z,38.89
2023-05-12T03:24:34.660Z,38.91
2023-05-12T03:25:04.668Z,38.86
2023-05-12T03:25:34.675Z,38.86
2023-05-12T03:26:04.696Z,38.87
2023-05-12T03:26:34.717Z,38.86
2023-05-12T03:27:04.713Z,38.82
2023-05-12T03:27:34.726Z,38.77
2023-05-12T03:28:04.726Z,38.83
2023-05-12T03:28:34.767Z,38.83
2023-05-12T03:29:04.745Z,38.88
2023-05-12T03:29:34.753Z,38.87
2023-05-12T03:30:04.757Z,38.84
2023-05-12T03:30:34.789Z,38.89
2023-05-12T03:31:04.816Z,38.88
2023-05-12T03:31:34.865Z,38.92
2023-05-12T03:32:04.886Z,38.91
2023-05-12T03:32:34.909Z,38.87
2023-05-12T03:33:04.947Z,38.88
2023-05-12T03:33:34.961Z,38.83
2023-05-12T03:34:04.983Z,38.85
2023-05-12T03:34:34.980Z,38.91
2023-05-12T03:35:04.981Z,38.88
2023-05-12T03:35:35.002Z,38.88
2023-05-12T03:36:05.009Z,38.89
2023-05-12T03:36:35.091Z,38.92
2023-05-12T03:37:05.172Z,38.92
2023-05-12T03:37:35.251Z,38.93
2023-05-12T03:38:05.367Z,38.89
2023-05-12T03:38:35.456Z,38.93
2023-05-12T03:39:05.533Z,38.89
2023-05-12T03:39:35.621Z,38.96
2023-05-12T03:40:05.732Z,38.93
2023-05-12T03:40:35.809Z,38.89
2023-05-12T03:41:05.886Z,38.92
2023-05-12T03:41:35.965Z,38.93
2023-05-12T03:42:06.060Z,38.90
2023-05-12T03:42:36.139Z,38.92
2023-05-12T03:43:06.203Z,38.96
2023-05-12T03:43:36.311Z,38.91
2023-05-12T03:44:06.377Z,38.95
2023-05-12T03:44:36.475Z,38.95
2023-05-12T03:45:06.549Z,38.91
2023-05-12T03:45:36.638Z,38.93
2023-05-12T03:46:06.786Z,38.89
2023-05-12T03:46:36.914Z,38.93
2023-05-12T03:47:06.914Z,38.93
2023-05-12T03:47:37.114Z,38.95
2023-05-12T03:48:07.087Z,38.89
2023-05-12T03:48:37.027Z,38.88
2023-05-12T03:49:07.035Z,38.86
2023-05-12T03:49:37.036Z,38.92
2023-05-12T03:50:07.043Z,38.88
2023-05-12T03:50:37.067Z,38.89
2023-05-12T03:51:07.061Z,38.89
2023-05-12T03:51:37.060Z,38.95
2023-05-12T03:52:07.076Z,38.89
2023-05-12T03:52:37.079Z,38.86
2023-05-12T03:53:07.085Z,38.95
2023-05-12T03:53:37.085Z,38.92
2023-05-12T03:54:07.094Z,38.91
2023-05-12T03:54:37.995Z,38.86
2023-05-12T03:55:07.282Z,38.88
2023-05-12T03:55:37.252Z,38.84
2023-05-12T03:56:07.263Z,38.89
2023-05-12T03:56:37.275Z,38.88
2023-05-12T03:57:07.280Z,38.78
2023-05-12T03:58:07.377Z,38.85
2023-05-12T03:58:37.380Z,38.85
2023-05-12T03:59:07.457Z,38.84
2023-05-12T03:59:37.462Z,38.84
2023-05-12T04:00:07.485Z,38.82
2023-05-12T04:00:38.815Z,38.80
2023-05-12T04:01:07.508Z,38.92
2023-05-12T04:01:37.524Z,38.87
2023-05-12T04:02:07.564Z,38.83
2023-05-12T04:02:37.633Z,38.85
2023-05-12T04:03:07.761Z,38.86
2023-05-12T04:03:37.747Z,38.82
2023-05-12T04:04:07.860Z,38.82
2023-05-12T04:04:37.894Z,38.87
2023-05-12T04:05:07.911Z,38.89
2023-05-12T04:05:37.918Z,38.85
2023-05-12T04:06:07.918Z,38.89
2023-05-12T04:06:37.919Z,38.86
2023-05-12T04:07:07.925Z,38.81
2023-05-12T04:07:37.937Z,38.89
2023-05-12T04:08:07.953Z,38.88
2023-05-12T04:08:39.736Z,38.88
2023-05-12T04:09:07.982Z,38.95
2023-05-12T04:09:38.027Z,38.90
2023-05-12T04:10:08.092Z,38.96
2023-05-12T04:10:38.111Z,38.93
2023-05-12T04:11:08.113Z,38.95
2023-05-12T04:11:38.114Z,39.03
2023-05-12T04:12:08.120Z,39.00
2023-05-12T04:12:38.172Z,38.96
2023-05-12T04:13:08.268Z,39.04
2023-05-12T04:13:38.281Z,39.09
2023-05-12T04:14:08.292Z,39.11
2023-05-12T04:14:42.761Z,39.09
2023-05-12T04:15:08.413Z,39.11
2023-05-12T04:15:38.411Z,39.14
2023-05-12T04:16:08.463Z,39.22
2023-05-12T04:16:38.524Z,39.23
2023-05-12T04:17:08.529Z,39.23
2023-05-12T04:17:38.568Z,39.15
2023-05-12T04:18:08.577Z,39.18
2023-05-12T04:18:38.666Z,39.22
2023-05-12T04:19:08.768Z,39.28
2023-05-12T04:19:38.685Z,39.27
2023-05-12T04:20:08.689Z,39.31
2023-05-12T04:20:38.692Z,39.39
2023-05-12T04:21:08.706Z,39.45
2023-05-12T04:21:38.707Z,39.41
2023-05-12T04:22:08.714Z,39.70
2023-05-12T04:22:38.734Z,39.75
2023-05-12T04:23:08.747Z,39.86
2023-05-12T04:23:38.748Z,39.98
2023-05-12T04:24:08.747Z,39.96
2023-05-12T04:24:38.765Z,39.93
2023-05-12T04:25:08.766Z,40.03
2023-05-12T04:25:38.774Z,39.89
2023-05-12T04:26:11.699Z,39.94
2023-05-12T04:26:38.938Z,39.97
2023-05-12T04:27:08.958Z,39.93
2023-05-12T04:27:38.967Z,39.91
2023-05-12T04:28:11.289Z,39.87
2023-05-12T04:28:39.162Z,40.18
2023-05-12T04:29:09.184Z,39.99
2023-05-12T04:29:39.179Z,40.16
2023-05-12T04:30:09.202Z,40.04
2023-05-12T04:30:39.185Z,40.10
2023-05-12T04:31:09.208Z,40.39
2023-05-12T04:31:39.231Z,40.17
2023-05-12T04:32:09.454Z,40.28
2023-05-12T04:32:39.328Z,40.48
2023-05-12T04:33:09.417Z,40.38
2023-05-12T04:33:39.452Z,40.38
2023-05-12T04:34:09.454Z,40.32
2023-05-12T04:34:39.489Z,40.36
2023-05-12T04:35:09.489Z,40.30
2023-05-12T04:35:39.513Z,40.36
2023-05-12T04:36:09.615Z,40.46
2023-05-12T04:36:39.705Z,40.41
2023-05-12T04:37:09.791Z,40.45
2023-05-12T04:37:39.881Z,40.47
2023-05-12T04:38:09.973Z,40.47
2023-05-12T04:38:40.050Z,40.44
2023-05-12T04:39:10.158Z,40.47
2023-05-12T04:39:40.236Z,40.61
2023-05-12T04:40:10.321Z,40.57
2023-05-12T04:40:40.417Z,40.66
2023-05-12T04:41:10.509Z,40.63
2023-05-12T04:41:40.598Z,40.63
2023-05-12T04:42:10.699Z,40.66
2023-05-12T04:42:40.776Z,40.66
2023-05-12T04:43:59.882Z,40.77
2023-05-12T04:44:11.032Z,40.80
2023-05-12T04:44:41.114Z,40.78
2023-05-12T04:45:11.218Z,40.88
2023-05-12T04:45:41.342Z,40.90
2023-05-12T04:46:11.330Z,40.83
2023-05-12T04:47:11.393Z,40.92
2023-05-12T04:47:41.434Z,40.95
2023-05-12T04:48:11.444Z,41.08
2023-05-12T04:48:41.492Z,41.26
2023-05-12T04:49:11.510Z,41.14
2023-05-12T04:49:41.504Z,41.17
2023-05-12T04:50:11.506Z,41.27
2023-05-12T04:50:41.511Z,41.24
2023-05-12T04:51:11.516Z,41.22
2023-05-12T04:51:41.522Z,41.17
2023-05-12T04:52:11.540Z,41.28
2023-05-12T04:52:41.547Z,41.21
2023-05-12T04:53:11.592Z,41.31
2023-05-12T04:53:41.578Z,41.20
2023-05-12T04:54:11.593Z,41.26
2023-05-12T04:54:41.613Z,41.02
2023-05-12T04:55:11.619Z,41.10
2023-05-12T04:55:41.633Z,41.07
2023-05-12T04:56:11.638Z,41.04
2023-05-12T04:56:41.650Z,41.05
2023-05-12T04:57:11.654Z,40.97
2023-05-12T04:57:41.684Z,41.06
2023-05-12T04:58:11.663Z,40.97
2023-05-12T04:58:41.674Z,40.98
2023-05-12T04:59:11.709Z,40.96
2023-05-12T04:59:41.707Z,41.02
2023-05-12T05:00:11.701Z,41.01
2023-05-12T05:01:11.829Z,40.86
2023-05-12T05:01:41.834Z,40.88
2023-05-12T05:02:11.894Z,40.79
2023-05-12T05:02:42.041Z,40.84
2023-05-12T05:03:12.140Z,40.91
2023-05-12T05:03:42.165Z,40.84
2023-05-12T05:04:12.165Z,40.88
2023-05-12T05:04:42.165Z,40.87
2023-05-12T05:05:12.191Z,40.88
2023-05-12T05:05:42.186Z,40.86
2023-05-12T05:06:12.212Z,40.87
2023-05-12T05:06:42.201Z,40.88
2023-05-12T05:07:12.206Z,40.90
2023-05-12T05:07:42.210Z,40.92
2023-05-12T05:08:12.220Z,40.91
2023-05-12T05:08:42.297Z,40.93
2023-05-12T05:09:12.301Z,40.94
2023-05-12T05:09:42.309Z,40.92
2023-05-12T05:10:12.323Z,40.91
2023-05-12T05:10:42.330Z,40.91
2023-05-12T05:11:12.332Z,40.82
2023-05-12T05:11:42.342Z,40.82
2023-05-12T05:12:12.344Z,40.82
2023-05-12T05:12:42.350Z,40.84
2023-05-12T05:13:12.370Z,40.79
2023-05-12T05:13:42.388Z,40.81
2023-05-12T05:14:12.395Z,40.74
2023-05-12T05:14:42.410Z,40.73
2023-05-12T05:15:12.413Z,40.70
2023-05-12T05:15:42.441Z,40.71
2023-05-12T05:16:12.464Z,40.68
2023-05-12T05:16:42.459Z,40.72
2023-05-12T05:17:12.441Z,40.63
2023-05-12T05:18:12.584Z,40.65
2023-05-12T05:18:42.584Z,40.58
2023-05-12T05:19:21.821Z,40.57
2023-05-12T05:19:54.876Z,40.54
2023-05-12T05:20:15.396Z,40.59
2023-05-12T05:20:45.446Z,40.46
2023-05-12T05:21:12.952Z,40.52
2023-05-12T05:21:42.948Z,40.57
2023-05-12T05:22:12.977Z,40.68
2023-05-12T05:22:42.994Z,40.89
2023-05-12T05:23:13.001Z,40.84
2023-05-12T05:23:42.996Z,40.67
2023-05-12T05:24:13.012Z,40.66
2023-05-12T05:24:43.018Z,40.62
2023-05-12T05:25:13.130Z,40.57
2023-05-12T05:25:43.141Z,40.48
2023-05-12T05:26:13.147Z,40.42
2023-05-12T05:26:43.153Z,40.39
2023-05-12T05:27:13.174Z,40.30
2023-05-12T05:27:43.176Z,40.29
2023-05-12T05:28:13.182Z,40.24
2023-05-12T05:28:43.195Z,40.27
2023-05-12T05:29:13.189Z,40.23
2023-05-12T05:29:43.196Z,40.23
2023-05-12T05:30:13.192Z,40.05
2023-05-12T05:30:43.312Z,40.03
2023-05-12T05:31:13.341Z,40.01
2023-05-12T05:31:43.409Z,39.93
2023-05-12T05:32:13.481Z,39.85
2023-05-12T05:32:43.613Z,39.88
2023-05-12T05:33:13.557Z,39.90
2023-05-12T05:33:43.564Z,39.86
2023-05-12T05:34:13.589Z,39.94
2023-05-12T05:34:43.619Z,39.86
2023-05-12T05:35:13.654Z,39.90
2023-05-12T05:35:43.644Z,39.82
2023-05-12T05:36:13.742Z,39.86
2023-05-12T05:36:43.832Z,39.82
2023-05-12T05:37:13.918Z,39.84
2023-05-12T05:37:44.000Z,39.86
2023-05-12T05:38:14.078Z,39.87
2023-05-12T05:38:44.160Z,39.84
2023-05-12T05:39:14.264Z,39.78
2023-05-12T05:39:44.345Z,39.79
2023-05-12T05:40:14.422Z,39.82
2023-05-12T05:40:52.872Z,39.81
2023-05-12T05:41:14.631Z,39.78
2023-05-12T05:41:44.732Z,39.81
2023-05-12T05:42:14.801Z,39.86
2023-05-12T05:42:44.892Z,39.86
2023-05-12T05:43:14.967Z,39.85
2023-05-12T05:43:45.056Z,39.85
2023-05-12T05:44:15.151Z,39.89
2023-05-12T05:44:45.234Z,39.84
2023-05-12T05:45:15.314Z,39.84
2023-05-12T05:45:45.429Z,39.82
2023-05-12T05:46:15.446Z,39.79
2023-05-12T05:46:45.572Z,39.83
2023-05-12T05:47:15.444Z,39.89
2023-05-12T05:47:45.553Z,39.82
2023-05-12T05:48:15.457Z,39.89
2023-05-12T05:49:15.537Z,39.82
2023-05-12T05:49:45.538Z,39.82
2023-05-12T05:50:15.558Z,39.85
2023-05-12T05:50:45.566Z,39.92
2023-05-12T05:51:15.561Z,39.98
2023-05-12T05:51:45.559Z,39.97
2023-05-12T05:52:15.568Z,39.98
2023-05-12T05:52:45.576Z,39.89
2023-05-12T05:53:15.655Z,39.79
2023-05-12T05:53:45.671Z,39.79
2023-05-12T05:54:15.738Z,39.81
2023-05-12T05:54:45.786Z,39.89
2023-05-12T05:55:15.796Z,39.77
2023-05-12T05:55:45.796Z,39.77
2023-05-12T05:56:15.825Z,39.82
2023-05-12T05:56:45.797Z,39.77
2023-05-12T05:57:15.826Z,39.78
2023-05-12T05:57:45.822Z,39.77
2023-05-12T05:58:15.819Z,39.81
2023-05-12T05:58:45.832Z,39.77
2023-05-12T05:59:15.825Z,39.74
2023-05-12T05:59:45.852Z,39.78
2023-05-12T06:00:15.863Z,39.76
2023-05-12T06:00:45.888Z,39.76
2023-05-12T06:01:15.897Z,39.76
2023-05-12T06:01:46.014Z,39.74
2023-05-12T06:02:15.999Z,39.69
2023-05-12T06:02:46.278Z,39.66
2023-05-12T06:03:16.201Z,39.62
2023-05-12T06:03:46.240Z,39.51
2023-05-12T06:04:16.247Z,39.46
2023-05-12T06:04:46.170Z,39.47
2023-05-12T06:05:16.171Z,39.30
2023-05-12T06:05:46.178Z,39.23
2023-05-12T06:06:16.204Z,39.18
2023-05-12T06:06:46.195Z,39.16
2023-05-12T06:07:16.209Z,39.11
2023-05-12T06:07:46.220Z,39.07
2023-05-12T06:08:16.232Z,39.06
2023-05-12T06:08:46.266Z,39.02
2023-05-12T06:09:16.282Z,38.95
2023-05-12T06:09:46.291Z,39.10
2023-05-12T06:10:16.287Z,39.10
2023-05-12T06:10:46.315Z,39.24
2023-05-12T06:11:17.756Z,39.17
2023-05-12T06:11:46.372Z,39.22
2023-05-12T06:12:16.372Z,39.20
2023-05-12T06:12:46.379Z,39.14
2023-05-12T06:13:16.394Z,39.15
2023-05-12T06:13:46.404Z,39.13
2023-05-12T06:14:16.423Z,39.10
2023-05-12T06:14:46.454Z,39.17
2023-05-12T06:15:16.506Z,39.13
2023-05-12T06:15:46.507Z,39.08
2023-05-12T06:16:16.637Z,39.13
2023-05-12T06:16:46.608Z,39.11
2023-05-12T06:17:16.627Z,39.19
2023-05-12T06:17:46.626Z,39.21
2023-05-12T06:18:16.630Z,39.13
2023-05-12T06:18:46.750Z,39.14
2023-05-12T06:19:16.675Z,39.20
2023-05-12T06:20:16.814Z,39.14
2023-05-12T06:20:46.828Z,39.22
2023-05-12T06:21:16.829Z,39.20
2023-05-12T06:21:46.843Z,39.20
2023-05-12T06:22:16.846Z,39.20
2023-05-12T06:22:46.867Z,39.25
2023-05-12T06:23:16.879Z,39.28
2023-05-12T06:23:46.898Z,39.11
2023-05-12T06:24:16.895Z,39.17
2023-05-12T06:24:46.909Z,39.20
2023-05-12T06:25:16.904Z,39.20
2023-05-12T06:25:46.914Z,39.21
2023-05-12T06:26:16.916Z,39.07
2023-05-12T06:26:46.930Z,39.07
2023-05-12T06:27:16.934Z,39.09
2023-05-12T06:27:46.976Z,39.12
2023-05-12T06:28:16.979Z,39.13
2023-05-12T06:28:46.992Z,39.13
2023-05-12T06:29:17.000Z,39.14
2023-05-12T06:29:47.017Z,39.13
2023-05-12T06:30:17.034Z,39.20
2023-05-12T06:30:47.025Z,39.22
2023-05-12T06:31:17.106Z,39.32
2023-05-12T06:31:47.142Z,39.33
2023-05-12T06:32:17.235Z,39.25
2023-05-12T06:32:47.311Z,39.13